sensor_id;sensor_type;location;lat;lon;timestamp;P1;durP1;ratioP1;P2;durP2;ratioP2
21581;SDS011;10952;50.836;4.348;2022-12-29T00:02:14;3.53;;;1.40;;
21581;SDS011;10952;50.836;4.348;2022-12-29T00:04:41;2.50;;;1.07;;
21581;SDS011;10952;50.836;4.348;2022-12-29T00:07:06;3.73;;;1.40;;
21581;SDS011;10952;50.836;4.348;2022-12-29T00:09:35;4.57;;;1.30;;
21581;SDS011;10952;50.836;4.348;2022-12-29T00:12:02;2.50;;;1.33;;
21581;SDS011;10952;50.836;4.348;2022-12-29T00:14:28;1.87;;;1.00;;
21581;SDS011;10952;50.836;4.348;2022-12-29T00:17:14;3.17;;;1.27;;
21581;SDS011;10952;50.836;4.348;2022-12-29T00:19:39;2.07;;;1.10;;
21581;SDS011;10952;50.836;4.348;2022-12-29T00:22:24;4.87;;;1.00;;
21581;SDS011;10952;50.836;4.348;2022-12-29T00:25:09;2.23;;;1.10;;
21581;SDS011;10952;50.836;4.348;2022-12-29T00:27:54;5.20;;;1.53;;
21581;SDS011;10952;50.836;4.348;2022-12-29T00:30:40;5.23;;;1.40;;
21581;SDS011;10952;50.836;4.348;2022-12-29T00:33:30;3.47;;;1.83;;
21581;SDS011;10952;50.836;4.348;2022-12-29T00:36:17;4.30;;;1.00;;
21581;SDS011;10952;50.836;4.348;2022-12-29T00:38:53;2.73;;;1.17;;
21581;SDS011;10952;50.836;4.348;2022-12-29T00:41:40;3.00;;;1.00;;
21581;SDS011;10952;50.836;4.348;2022-12-29T00:44:24;3.67;;;1.20;;
21581;SDS011;10952;50.836;4.348;2022-12-29T00:46:51;2.77;;;0.80;;
21581;SDS011;10952;50.836;4.348;2022-12-29T00:49:16;1.93;;;0.90;;
21581;SDS011;10952;50.836;4.348;2022-12-29T00:54:32;3.90;;;0.80;;
21581;SDS011;10952;50.836;4.348;2022-12-29T00:56:59;4.03;;;1.60;;
21581;SDS011;10952;50.836;4.348;2022-12-29T00:59:25;6.57;;;1.10;;
21581;SDS011;10952;50.836;4.348;2022-12-29T01:01:51;1.80;;;0.83;;
21581;SDS011;10952;50.836;4.348;2022-12-29T01:04:18;2.83;;;0.77;;
21581;SDS011;10952;50.836;4.348;2022-12-29T01:06:45;4.10;;;1.00;;
21581;SDS011;10952;50.836;4.348;2022-12-29T01:09:11;4.97;;;1.00;;
21581;SDS011;10952;50.836;4.348;2022-12-29T01:11:55;3.60;;;1.23;;
21581;SDS011;10952;50.836;4.348;2022-12-29T01:14:21;3.70;;;0.87;;
21581;SDS011;10952;50.836;4.348;2022-12-29T01:16:47;6.70;;;1.30;;
21581;SDS011;10952;50.836;4.348;2022-12-29T01:19:14;4.30;;;1.03;;
21581;SDS011;10952;50.836;4.348;2022-12-29T01:21:40;7.43;;;1.30;;
21581;SDS011;10952;50.836;4.348;2022-12-29T01:24:06;4.30;;;0.97;;
21581;SDS011;10952;50.836;4.348;2022-12-29T01:26:32;4.00;;;1.23;;
21581;SDS011;10952;50.836;4.348;2022-12-29T01:28:58;3.47;;;1.37;;
21581;SDS011;10952;50.836;4.348;2022-12-29T01:31:23;4.30;;;1.20;;
21581;SDS011;10952;50.836;4.348;2022-12-29T01:33:49;2.77;;;1.00;;
21581;SDS011;10952;50.836;4.348;2022-12-29T01:36:18;4.40;;;1.33;;
21581;SDS011;10952;50.836;4.348;2022-12-29T01:38:44;5.70;;;1.40;;
21581;SDS011;10952;50.836;4.348;2022-12-29T01:41:11;2.97;;;1.13;;
21581;SDS011;10952;50.836;4.348;2022-12-29T01:46:14;2.80;;;0.87;;
21581;SDS011;10952;50.836;4.348;2022-12-29T01:48:44;2.80;;;1.40;;
21581;SDS011;10952;50.836;4.348;2022-12-29T01:51:13;3.90;;;1.07;;
21581;SDS011;10952;50.836;4.348;2022-12-29T01:53:40;3.43;;;1.10;;
21581;SDS011;10952;50.836;4.348;2022-12-29T01:56:07;4.40;;;1.33;;
21581;SDS011;10952;50.836;4.348;2022-12-29T01:58:39;1.57;;;0.90;;
21581;SDS011;10952;50.836;4.348;2022-12-29T02:01:08;2.77;;;0.90;;
21581;SDS011;10952;50.836;4.348;2022-12-29T02:03:33;2.83;;;0.97;;
21581;SDS011;10952;50.836;4.348;2022-12-29T02:08:38;2.53;;;0.80;;
21581;SDS011;10952;50.836;4.348;2022-12-29T02:11:05;3.93;;;0.70;;
21581;SDS011;10952;50.836;4.348;2022-12-29T02:13:32;5.60;;;0.97;;
21581;SDS011;10952;50.836;4.348;2022-12-29T02:18:32;3.00;;;0.90;;
21581;SDS011;10952;50.836;4.348;2022-12-29T02:49:48;2.27;;;0.93;;
21581;SDS011;10952;50.836;4.348;2022-12-29T02:52:23;2.70;;;0.70;;
21581;SDS011;10952;50.836;4.348;2022-12-29T02:54:54;2.00;;;0.70;;
21581;SDS011;10952;50.836;4.348;2022-12-29T02:59:57;4.80;;;0.77;;
21581;SDS011;10952;50.836;4.348;2022-12-29T03:05:22;5.80;;;0.90;;
21581;SDS011;10952;50.836;4.348;2022-12-29T03:13:24;6.43;;;1.30;;
21581;SDS011;10952;50.836;4.348;2022-12-29T03:16:20;10.90;;;1.20;;
21581;SDS011;10952;50.836;4.348;2022-12-29T03:21:32;4.30;;;0.80;;
21581;SDS011;10952;50.836;4.348;2022-12-29T03:24:24;3.93;;;0.90;;
21581;SDS011;10952;50.836;4.348;2022-12-29T03:26:53;3.03;;;0.90;;
21581;SDS011;10952;50.836;4.348;2022-12-29T03:29:21;3.57;;;0.90;;
21581;SDS011;10952;50.836;4.348;2022-12-29T03:31:48;4.70;;;1.13;;
21581;SDS011;10952;50.836;4.348;2022-12-29T03:34:16;2.53;;;0.80;;
21581;SDS011;10952;50.836;4.348;2022-12-29T03:36:55;3.20;;;1.17;;
21581;SDS011;10952;50.836;4.348;2022-12-29T03:39:29;2.63;;;1.00;;
21581;SDS011;10952;50.836;4.348;2022-12-29T03:41:59;4.73;;;1.17;;
21581;SDS011;10952;50.836;4.348;2022-12-29T03:44:39;1.90;;;1.03;;
21581;SDS011;10952;50.836;4.348;2022-12-29T03:47:07;2.57;;;0.70;;
21581;SDS011;10952;50.836;4.348;2022-12-29T03:49:34;4.20;;;0.90;;
21581;SDS011;10952;50.836;4.348;2022-12-29T03:52:00;3.37;;;1.17;;
21581;SDS011;10952;50.836;4.348;2022-12-29T03:54:26;6.60;;;1.30;;
21581;SDS011;10952;50.836;4.348;2022-12-29T03:56:53;7.87;;;1.40;;
21581;SDS011;10952;50.836;4.348;2022-12-29T03:59:19;5.30;;;1.27;;
21581;SDS011;10952;50.836;4.348;2022-12-29T04:01:44;7.20;;;1.27;;
21581;SDS011;10952;50.836;4.348;2022-12-29T04:04:10;2.97;;;1.10;;
21581;SDS011;10952;50.836;4.348;2022-12-29T04:06:36;5.00;;;0.83;;
21581;SDS011;10952;50.836;4.348;2022-12-29T04:09:01;5.90;;;1.07;;
21581;SDS011;10952;50.836;4.348;2022-12-29T04:11:28;5.80;;;1.30;;
21581;SDS011;10952;50.836;4.348;2022-12-29T04:13:54;6.27;;;1.47;;
21581;SDS011;10952;50.836;4.348;2022-12-29T04:16:19;4.40;;;0.90;;
21581;SDS011;10952;50.836;4.348;2022-12-29T04:18:45;4.00;;;1.10;;
21581;SDS011;10952;50.836;4.348;2022-12-29T04:21:10;4.43;;;1.50;;
21581;SDS011;10952;50.836;4.348;2022-12-29T04:23:37;7.03;;;1.20;;
21581;SDS011;10952;50.836;4.348;2022-12-29T04:26:04;7.17;;;1.03;;
21581;SDS011;10952;50.836;4.348;2022-12-29T04:28:35;5.73;;;1.10;;
21581;SDS011;10952;50.836;4.348;2022-12-29T04:31:02;4.17;;;0.80;;
21581;SDS011;10952;50.836;4.348;2022-12-29T04:33:28;7.70;;;1.10;;
21581;SDS011;10952;50.836;4.348;2022-12-29T04:35:54;4.60;;;1.10;;
21581;SDS011;10952;50.836;4.348;2022-12-29T04:38:20;8.27;;;1.30;;
21581;SDS011;10952;50.836;4.348;2022-12-29T04:40:47;6.37;;;1.63;;
21581;SDS011;10952;50.836;4.348;2022-12-29T04:43:13;4.47;;;1.00;;
21581;SDS011;10952;50.836;4.348;2022-12-29T04:45:43;4.50;;;1.27;;
21581;SDS011;10952;50.836;4.348;2022-12-29T04:48:12;4.17;;;1.20;;
21581;SDS011;10952;50.836;4.348;2022-12-29T04:50:39;4.93;;;1.30;;
21581;SDS011;10952;50.836;4.348;2022-12-29T04:53:06;6.80;;;1.30;;
21581;SDS011;10952;50.836;4.348;2022-12-29T04:55:32;10.00;;;1.20;;
21581;SDS011;10952;50.836;4.348;2022-12-29T04:57:58;5.10;;;1.40;;
21581;SDS011;10952;50.836;4.348;2022-12-29T05:00:25;5.40;;;1.30;;
21581;SDS011;10952;50.836;4.348;2022-12-29T05:02:51;5.87;;;1.70;;
21581;SDS011;10952;50.836;4.348;2022-12-29T05:05:16;6.37;;;1.20;;
21581;SDS011;10952;50.836;4.348;2022-12-29T05:07:42;4.37;;;1.10;;
21581;SDS011;10952;50.836;4.348;2022-12-29T05:10:08;9.50;;;1.27;;
21581;SDS011;10952;50.836;4.348;2022-12-29T05:12:34;3.53;;;0.80;;
21581;SDS011;10952;50.836;4.348;2022-12-29T05:15:02;6.77;;;1.00;;
21581;SDS011;10952;50.836;4.348;2022-12-29T05:17:28;10.97;;;1.33;;
21581;SDS011;10952;50.836;4.348;2022-12-29T05:19:54;5.87;;;1.40;;
21581;SDS011;10952;50.836;4.348;2022-12-29T05:22:20;5.10;;;1.57;;
21581;SDS011;10952;50.836;4.348;2022-12-29T05:24:46;6.83;;;1.23;;
21581;SDS011;10952;50.836;4.348;2022-12-29T05:27:11;8.47;;;1.87;;
21581;SDS011;10952;50.836;4.348;2022-12-29T05:29:37;5.73;;;1.10;;
21581;SDS011;10952;50.836;4.348;2022-12-29T05:32:03;5.43;;;1.30;;
21581;SDS011;10952;50.836;4.348;2022-12-29T05:34:28;6.53;;;1.70;;
21581;SDS011;10952;50.836;4.348;2022-12-29T05:36:54;9.83;;;1.60;;
21581;SDS011;10952;50.836;4.348;2022-12-29T05:39:20;9.27;;;1.80;;
21581;SDS011;10952;50.836;4.348;2022-12-29T05:41:45;8.10;;;1.50;;
21581;SDS011;10952;50.836;4.348;2022-12-29T05:44:11;10.97;;;1.53;;
21581;SDS011;10952;50.836;4.348;2022-12-29T05:46:38;6.87;;;1.40;;
21581;SDS011;10952;50.836;4.348;2022-12-29T05:49:04;18.43;;;1.87;;
21581;SDS011;10952;50.836;4.348;2022-12-29T05:51:30;7.83;;;1.43;;
21581;SDS011;10952;50.836;4.348;2022-12-29T05:53:58;11.40;;;1.53;;
21581;SDS011;10952;50.836;4.348;2022-12-29T05:56:25;9.97;;;1.73;;
21581;SDS011;10952;50.836;4.348;2022-12-29T05:58:52;10.57;;;1.77;;
21581;SDS011;10952;50.836;4.348;2022-12-29T06:01:18;10.37;;;1.20;;
21581;SDS011;10952;50.836;4.348;2022-12-29T06:03:43;11.87;;;1.80;;
21581;SDS011;10952;50.836;4.348;2022-12-29T06:06:09;7.43;;;1.67;;
21581;SDS011;10952;50.836;4.348;2022-12-29T06:08:34;9.00;;;1.43;;
21581;SDS011;10952;50.836;4.348;2022-12-29T06:11:00;12.57;;;3.33;;
21581;SDS011;10952;50.836;4.348;2022-12-29T06:13:26;10.37;;;3.33;;
21581;SDS011;10952;50.836;4.348;2022-12-29T06:15:52;10.40;;;2.83;;
21581;SDS011;10952;50.836;4.348;2022-12-29T06:18:18;6.40;;;1.73;;
21581;SDS011;10952;50.836;4.348;2022-12-29T06:20:44;12.03;;;1.80;;
21581;SDS011;10952;50.836;4.348;2022-12-29T06:23:09;8.23;;;1.60;;
21581;SDS011;10952;50.836;4.348;2022-12-29T06:25:37;9.63;;;2.03;;
21581;SDS011;10952;50.836;4.348;2022-12-29T06:28:02;7.77;;;1.87;;
21581;SDS011;10952;50.836;4.348;2022-12-29T06:30:28;12.47;;;1.30;;
21581;SDS011;10952;50.836;4.348;2022-12-29T06:32:54;12.80;;;2.00;;
21581;SDS011;10952;50.836;4.348;2022-12-29T06:35:19;11.27;;;1.73;;
21581;SDS011;10952;50.836;4.348;2022-12-29T06:37:47;7.83;;;1.47;;
21581;SDS011;10952;50.836;4.348;2022-12-29T06:40:13;7.93;;;1.57;;
21581;SDS011;10952;50.836;4.348;2022-12-29T06:42:40;12.37;;;1.80;;
21581;SDS011;10952;50.836;4.348;2022-12-29T06:45:06;9.60;;;1.93;;
21581;SDS011;10952;50.836;4.348;2022-12-29T06:47:32;11.00;;;2.03;;
21581;SDS011;10952;50.836;4.348;2022-12-29T06:49:58;9.23;;;1.80;;
21581;SDS011;10952;50.836;4.348;2022-12-29T06:52:24;9.60;;;1.93;;
21581;SDS011;10952;50.836;4.348;2022-12-29T06:54:50;8.90;;;2.00;;
21581;SDS011;10952;50.836;4.348;2022-12-29T06:57:16;12.80;;;1.87;;
21581;SDS011;10952;50.836;4.348;2022-12-29T06:59:41;11.13;;;1.60;;
21581;SDS011;10952;50.836;4.348;2022-12-29T07:02:08;12.50;;;1.80;;
21581;SDS011;10952;50.836;4.348;2022-12-29T07:04:35;6.03;;;1.43;;
21581;SDS011;10952;50.836;4.348;2022-12-29T07:07:00;5.83;;;1.30;;
21581;SDS011;10952;50.836;4.348;2022-12-29T07:09:26;11.43;;;1.47;;
21581;SDS011;10952;50.836;4.348;2022-12-29T07:11:52;5.77;;;1.20;;
21581;SDS011;10952;50.836;4.348;2022-12-29T07:14:17;7.43;;;1.60;;
21581;SDS011;10952;50.836;4.348;2022-12-29T07:16:44;11.37;;;1.83;;
21581;SDS011;10952;50.836;4.348;2022-12-29T07:19:09;7.60;;;2.37;;
21581;SDS011;10952;50.836;4.348;2022-12-29T07:21:35;9.33;;;1.70;;
21581;SDS011;10952;50.836;4.348;2022-12-29T07:24:01;11.17;;;2.20;;
21581;SDS011;10952;50.836;4.348;2022-12-29T07:26:28;10.40;;;1.90;;
21581;SDS011;10952;50.836;4.348;2022-12-29T07:28:54;16.50;;;2.73;;
21581;SDS011;10952;50.836;4.348;2022-12-29T07:31:21;10.30;;;2.17;;
21581;SDS011;10952;50.836;4.348;2022-12-29T07:33:47;12.43;;;1.93;;
21581;SDS011;10952;50.836;4.348;2022-12-29T07:36:14;11.97;;;1.80;;
21581;SDS011;10952;50.836;4.348;2022-12-29T07:38:41;10.73;;;2.37;;
21581;SDS011;10952;50.836;4.348;2022-12-29T07:41:07;8.50;;;1.90;;
21581;SDS011;10952;50.836;4.348;2022-12-29T07:43:33;8.57;;;1.70;;
21581;SDS011;10952;50.836;4.348;2022-12-29T07:45:59;9.57;;;1.80;;
21581;SDS011;10952;50.836;4.348;2022-12-29T07:48:25;14.40;;;2.17;;
21581;SDS011;10952;50.836;4.348;2022-12-29T07:50:51;10.77;;;1.83;;
21581;SDS011;10952;50.836;4.348;2022-12-29T07:53:17;10.27;;;1.97;;
21581;SDS011;10952;50.836;4.348;2022-12-29T07:55:43;13.80;;;2.00;;
21581;SDS011;10952;50.836;4.348;2022-12-29T07:58:10;11.30;;;1.87;;
21581;SDS011;10952;50.836;4.348;2022-12-29T08:00:36;11.70;;;1.90;;
21581;SDS011;10952;50.836;4.348;2022-12-29T08:03:02;13.77;;;2.63;;
21581;SDS011;10952;50.836;4.348;2022-12-29T08:05:28;14.03;;;1.87;;
21581;SDS011;10952;50.836;4.348;2022-12-29T08:07:55;19.90;;;2.90;;
21581;SDS011;10952;50.836;4.348;2022-12-29T08:10:21;16.77;;;1.87;;
21581;SDS011;10952;50.836;4.348;2022-12-29T08:12:47;17.67;;;2.70;;
21581;SDS011;10952;50.836;4.348;2022-12-29T08:15:13;12.77;;;2.13;;
21581;SDS011;10952;50.836;4.348;2022-12-29T08:17:38;10.10;;;1.97;;
21581;SDS011;10952;50.836;4.348;2022-12-29T08:20:05;13.80;;;1.87;;
21581;SDS011;10952;50.836;4.348;2022-12-29T08:22:31;10.97;;;2.00;;
21581;SDS011;10952;50.836;4.348;2022-12-29T08:24:57;9.67;;;2.03;;
21581;SDS011;10952;50.836;4.348;2022-12-29T08:27:22;11.33;;;1.73;;
21581;SDS011;10952;50.836;4.348;2022-12-29T08:29:48;10.00;;;2.37;;
21581;SDS011;10952;50.836;4.348;2022-12-29T08:32:15;8.63;;;1.73;;
21581;SDS011;10952;50.836;4.348;2022-12-29T08:34:41;9.77;;;1.90;;
21581;SDS011;10952;50.836;4.348;2022-12-29T08:37:06;8.07;;;2.20;;
21581;SDS011;10952;50.836;4.348;2022-12-29T08:39:33;9.27;;;1.60;;
21581;SDS011;10952;50.836;4.348;2022-12-29T08:42:00;11.07;;;1.73;;
21581;SDS011;10952;50.836;4.348;2022-12-29T08:44:26;8.03;;;1.90;;
21581;SDS011;10952;50.836;4.348;2022-12-29T08:46:51;8.77;;;1.97;;
21581;SDS011;10952;50.836;4.348;2022-12-29T08:49:18;6.17;;;1.53;;
21581;SDS011;10952;50.836;4.348;2022-12-29T08:51:43;12.77;;;2.03;;
21581;SDS011;10952;50.836;4.348;2022-12-29T08:54:09;10.13;;;1.87;;
21581;SDS011;10952;50.836;4.348;2022-12-29T08:56:35;10.17;;;2.20;;
21581;SDS011;10952;50.836;4.348;2022-12-29T08:59:01;10.90;;;1.77;;
21581;SDS011;10952;50.836;4.348;2022-12-29T09:01:27;8.43;;;2.10;;
21581;SDS011;10952;50.836;4.348;2022-12-29T09:03:54;15.27;;;2.30;;
21581;SDS011;10952;50.836;4.348;2022-12-29T09:06:19;11.57;;;2.03;;
21581;SDS011;10952;50.836;4.348;2022-12-29T09:08:45;10.07;;;2.23;;
21581;SDS011;10952;50.836;4.348;2022-12-29T09:11:15;14.90;;;2.10;;
21581;SDS011;10952;50.836;4.348;2022-12-29T09:13:43;10.93;;;2.07;;
21581;SDS011;10952;50.836;4.348;2022-12-29T09:16:09;7.30;;;1.83;;
21581;SDS011;10952;50.836;4.348;2022-12-29T09:18:35;11.67;;;1.90;;
21581;SDS011;10952;50.836;4.348;2022-12-29T09:21:04;13.17;;;2.30;;
21581;SDS011;10952;50.836;4.348;2022-12-29T09:23:30;18.50;;;5.63;;
21581;SDS011;10952;50.836;4.348;2022-12-29T09:25:57;12.87;;;1.73;;
21581;SDS011;10952;50.836;4.348;2022-12-29T09:28:23;12.17;;;2.43;;
21581;SDS011;10952;50.836;4.348;2022-12-29T09:30:49;15.63;;;2.53;;
21581;SDS011;10952;50.836;4.348;2022-12-29T09:33:15;19.27;;;2.23;;
21581;SDS011;10952;50.836;4.348;2022-12-29T09:35:45;16.10;;;2.27;;
21581;SDS011;10952;50.836;4.348;2022-12-29T09:38:15;13.27;;;3.27;;
21581;SDS011;10952;50.836;4.348;2022-12-29T09:40:43;12.67;;;2.50;;
21581;SDS011;10952;50.836;4.348;2022-12-29T09:48:45;15.60;;;2.30;;
21581;SDS011;10952;50.836;4.348;2022-12-29T09:51:18;12.27;;;2.20;;
21581;SDS011;10952;50.836;4.348;2022-12-29T09:53:50;13.30;;;2.43;;
21581;SDS011;10952;50.836;4.348;2022-12-29T09:56:22;9.50;;;1.77;;
21581;SDS011;10952;50.836;4.348;2022-12-29T10:04:31;13.67;;;2.37;;
21581;SDS011;10952;50.836;4.348;2022-12-29T10:07:03;19.13;;;3.03;;
21581;SDS011;10952;50.836;4.348;2022-12-29T10:09:46;13.23;;;1.83;;
21581;SDS011;10952;50.836;4.348;2022-12-29T10:17:27;14.03;;;2.67;;
21581;SDS011;10952;50.836;4.348;2022-12-29T10:20:31;9.10;;;2.30;;
21581;SDS011;10952;50.836;4.348;2022-12-29T10:25:42;17.33;;;3.40;;
21581;SDS011;10952;50.836;4.348;2022-12-29T10:28:20;13.87;;;2.40;;
21581;SDS011;10952;50.836;4.348;2022-12-29T10:30:48;16.27;;;2.53;;
21581;SDS011;10952;50.836;4.348;2022-12-29T10:33:19;12.13;;;2.30;;
21581;SDS011;10952;50.836;4.348;2022-12-29T10:35:49;16.90;;;3.10;;
21581;SDS011;10952;50.836;4.348;2022-12-29T10:41:03;19.80;;;4.80;;
21581;SDS011;10952;50.836;4.348;2022-12-29T10:43:53;17.03;;;3.80;;
21581;SDS011;10952;50.836;4.348;2022-12-29T10:46:23;13.43;;;2.90;;
21581;SDS011;10952;50.836;4.348;2022-12-29T10:48:54;14.00;;;2.83;;
21581;SDS011;10952;50.836;4.348;2022-12-29T10:51:24;11.43;;;3.00;;
21581;SDS011;10952;50.836;4.348;2022-12-29T10:53:56;9.60;;;3.27;;
21581;SDS011;10952;50.836;4.348;2022-12-29T10:56:31;11.70;;;3.67;;
21581;SDS011;10952;50.836;4.348;2022-12-29T10:59:10;14.10;;;3.43;;
21581;SDS011;10952;50.836;4.348;2022-12-29T11:01:39;10.90;;;2.07;;
21581;SDS011;10952;50.836;4.348;2022-12-29T11:04:22;9.03;;;2.43;;
21581;SDS011;10952;50.836;4.348;2022-12-29T11:07:10;15.43;;;3.17;;
21581;SDS011;10952;50.836;4.348;2022-12-29T11:09:37;16.40;;;3.63;;
21581;SDS011;10952;50.836;4.348;2022-12-29T11:12:21;12.43;;;2.93;;
21581;SDS011;10952;50.836;4.348;2022-12-29T11:17:50;16.80;;;2.50;;
21581;SDS011;10952;50.836;4.348;2022-12-29T11:20:29;14.47;;;2.30;;
21581;SDS011;10952;50.836;4.348;2022-12-29T11:22:57;15.13;;;2.40;;
21581;SDS011;10952;50.836;4.348;2022-12-29T11:25:23;25.23;;;6.03;;
21581;SDS011;10952;50.836;4.348;2022-12-29T11:27:56;12.90;;;3.03;;
21581;SDS011;10952;50.836;4.348;2022-12-29T11:30:28;20.23;;;3.40;;
21581;SDS011;10952;50.836;4.348;2022-12-29T11:32:56;15.00;;;2.33;;
21581;SDS011;10952;50.836;4.348;2022-12-29T11:35:56;9.43;;;2.30;;
21581;SDS011;10952;50.836;4.348;2022-12-29T11:38:21;12.00;;;2.70;;
21581;SDS011;10952;50.836;4.348;2022-12-29T11:40:51;16.93;;;2.67;;
21581;SDS011;10952;50.836;4.348;2022-12-29T11:43:23;16.73;;;2.90;;
21581;SDS011;10952;50.836;4.348;2022-12-29T11:45:56;16.17;;;2.77;;
21581;SDS011;10952;50.836;4.348;2022-12-29T11:48:21;19.23;;;2.80;;
21581;SDS011;10952;50.836;4.348;2022-12-29T11:50:50;14.03;;;3.03;;
21581;SDS011;10952;50.836;4.348;2022-12-29T11:55:53;11.60;;;2.40;;
21581;SDS011;10952;50.836;4.348;2022-12-29T11:58:28;13.07;;;1.97;;
21581;SDS011;10952;50.836;4.348;2022-12-29T12:00:54;14.10;;;3.00;;
21581;SDS011;10952;50.836;4.348;2022-12-29T12:03:24;20.00;;;4.47;;
21581;SDS011;10952;50.836;4.348;2022-12-29T12:05:56;15.50;;;3.20;;
21581;SDS011;10952;50.836;4.348;2022-12-29T12:11:19;14.43;;;2.50;;
21581;SDS011;10952;50.836;4.348;2022-12-29T12:14:07;14.57;;;2.20;;
21581;SDS011;10952;50.836;4.348;2022-12-29T12:16:57;24.23;;;3.90;;
21581;SDS011;10952;50.836;4.348;2022-12-29T12:19:32;16.13;;;3.93;;
21581;SDS011;10952;50.836;4.348;2022-12-29T12:22:19;12.50;;;3.10;;
21581;SDS011;10952;50.836;4.348;2022-12-29T12:25:03;13.37;;;2.90;;
21581;SDS011;10952;50.836;4.348;2022-12-29T12:30:27;13.83;;;3.23;;
21581;SDS011;10952;50.836;4.348;2022-12-29T12:32:59;15.53;;;2.87;;
21581;SDS011;10952;50.836;4.348;2022-12-29T12:41:01;18.30;;;3.03;;
21581;SDS011;10952;50.836;4.348;2022-12-29T12:43:36;23.40;;;3.40;;
21581;SDS011;10952;50.836;4.348;2022-12-29T12:59:50;20.00;;;3.23;;
21581;SDS011;10952;50.836;4.348;2022-12-29T13:08:55;19.00;;;5.17;;
21581;SDS011;10952;50.836;4.348;2022-12-29T13:23:01;16.70;;;3.83;;
21581;SDS011;10952;50.836;4.348;2022-12-29T13:25:29;14.70;;;3.37;;
21581;SDS011;10952;50.836;4.348;2022-12-29T13:41:56;13.97;;;2.40;;
21581;SDS011;10952;50.836;4.348;2022-12-29T13:44:23;17.43;;;3.20;;
21581;SDS011;10952;50.836;4.348;2022-12-29T13:46:53;14.87;;;2.87;;
21581;SDS011;10952;50.836;4.348;2022-12-29T13:49:22;9.20;;;2.47;;
21581;SDS011;10952;50.836;4.348;2022-12-29T13:52:17;11.60;;;3.07;;
21581;SDS011;10952;50.836;4.348;2022-12-29T13:57:19;16.93;;;3.27;;
21581;SDS011;10952;50.836;4.348;2022-12-29T14:05:32;15.63;;;2.53;;
21581;SDS011;10952;50.836;4.348;2022-12-29T14:07:59;15.57;;;2.97;;
21581;SDS011;10952;50.836;4.348;2022-12-29T14:10:37;9.43;;;2.33;;
21581;SDS011;10952;50.836;4.348;2022-12-29T14:15:56;11.90;;;2.70;;
21581;SDS011;10952;50.836;4.348;2022-12-29T14:23:43;14.87;;;2.70;;
21581;SDS011;10952;50.836;4.348;2022-12-29T14:26:14;13.63;;;3.53;;
21581;SDS011;10952;50.836;4.348;2022-12-29T14:31:46;24.63;;;4.00;;
21581;SDS011;10952;50.836;4.348;2022-12-29T14:36:41;19.60;;;2.87;;
21581;SDS011;10952;50.836;4.348;2022-12-29T14:42:11;15.07;;;2.60;;
21581;SDS011;10952;50.836;4.348;2022-12-29T14:47:27;7.80;;;1.80;;
21581;SDS011;10952;50.836;4.348;2022-12-29T14:55:41;9.90;;;2.07;;
21581;SDS011;10952;50.836;4.348;2022-12-29T14:58:25;3.57;;;1.57;;
21581;SDS011;10952;50.836;4.348;2022-12-29T15:00:58;6.23;;;2.03;;
21581;SDS011;10952;50.836;4.348;2022-12-29T15:06:11;8.47;;;1.70;;
21581;SDS011;10952;50.836;4.348;2022-12-29T15:08:53;7.77;;;2.40;;
21581;SDS011;10952;50.836;4.348;2022-12-29T15:17:38;7.67;;;2.10;;
21581;SDS011;10952;50.836;4.348;2022-12-29T15:19:59;7.87;;;1.63;;
21581;SDS011;10952;50.836;4.348;2022-12-29T15:22:45;7.37;;;1.77;;
21581;SDS011;10952;50.836;4.348;2022-12-29T15:25:20;7.87;;;1.93;;
21581;SDS011;10952;50.836;4.348;2022-12-29T15:27:51;9.33;;;2.07;;
21581;SDS011;10952;50.836;4.348;2022-12-29T15:30:24;6.13;;;1.20;;
21581;SDS011;10952;50.836;4.348;2022-12-29T15:32:50;6.37;;;1.93;;
21581;SDS011;10952;50.836;4.348;2022-12-29T15:35:28;5.83;;;2.13;;
21581;SDS011;10952;50.836;4.348;2022-12-29T15:37:59;7.67;;;1.70;;
21581;SDS011;10952;50.836;4.348;2022-12-29T15:40:48;7.77;;;1.70;;
21581;SDS011;10952;50.836;4.348;2022-12-29T15:43:29;9.97;;;3.00;;
21581;SDS011;10952;50.836;4.348;2022-12-29T15:45:55;9.40;;;2.50;;
21581;SDS011;10952;50.836;4.348;2022-12-29T15:48:22;11.97;;;2.33;;
21581;SDS011;10952;50.836;4.348;2022-12-29T15:50:49;9.30;;;2.60;;
21581;SDS011;10952;50.836;4.348;2022-12-29T15:53:33;10.87;;;2.80;;
21581;SDS011;10952;50.836;4.348;2022-12-29T15:56:00;11.77;;;2.70;;
21581;SDS011;10952;50.836;4.348;2022-12-29T15:58:31;17.43;;;2.73;;
21581;SDS011;10952;50.836;4.348;2022-12-29T16:01:31;7.37;;;2.27;;
21581;SDS011;10952;50.836;4.348;2022-12-29T16:04:10;11.70;;;2.50;;
21581;SDS011;10952;50.836;4.348;2022-12-29T16:06:37;7.63;;;1.90;;
21581;SDS011;10952;50.836;4.348;2022-12-29T16:09:27;11.83;;;2.53;;
21581;SDS011;10952;50.836;4.348;2022-12-29T16:12:19;13.30;;;3.03;;
21581;SDS011;10952;50.836;4.348;2022-12-29T16:14:57;11.63;;;3.13;;
21581;SDS011;10952;50.836;4.348;2022-12-29T16:17:30;10.10;;;2.47;;
21581;SDS011;10952;50.836;4.348;2022-12-29T16:22:31;15.07;;;3.30;;
21581;SDS011;10952;50.836;4.348;2022-12-29T16:25:01;17.80;;;3.70;;
21581;SDS011;10952;50.836;4.348;2022-12-29T16:27:36;19.03;;;3.50;;
21581;SDS011;10952;50.836;4.348;2022-12-29T16:30:27;10.60;;;2.97;;
21581;SDS011;10952;50.836;4.348;2022-12-29T16:32:54;16.07;;;3.30;;
21581;SDS011;10952;50.836;4.348;2022-12-29T16:38:19;15.63;;;2.80;;
21581;SDS011;10952;50.836;4.348;2022-12-29T16:40:57;14.17;;;3.37;;
21581;SDS011;10952;50.836;4.348;2022-12-29T16:43:36;19.10;;;3.57;;
21581;SDS011;10952;50.836;4.348;2022-12-29T16:48:46;23.07;;;5.73;;
21581;SDS011;10952;50.836;4.348;2022-12-29T16:51:16;20.57;;;4.77;;
21581;SDS011;10952;50.836;4.348;2022-12-29T16:53:48;22.27;;;5.60;;
21581;SDS011;10952;50.836;4.348;2022-12-29T16:56:20;21.40;;;4.53;;
21581;SDS011;10952;50.836;4.348;2022-12-29T16:58:50;19.13;;;4.77;;
21581;SDS011;10952;50.836;4.348;2022-12-29T17:01:19;20.07;;;4.50;;
21581;SDS011;10952;50.836;4.348;2022-12-29T17:03:47;19.97;;;4.33;;
21581;SDS011;10952;50.836;4.348;2022-12-29T17:06:16;19.30;;;4.00;;
21581;SDS011;10952;50.836;4.348;2022-12-29T17:08:45;18.10;;;3.70;;
21581;SDS011;10952;50.836;4.348;2022-12-29T17:14:40;17.70;;;3.10;;
21581;SDS011;10952;50.836;4.348;2022-12-29T17:20:22;18.73;;;3.97;;
21581;SDS011;10952;50.836;4.348;2022-12-29T17:22:49;18.83;;;4.10;;
21581;SDS011;10952;50.836;4.348;2022-12-29T17:25:19;18.23;;;4.83;;
21581;SDS011;10952;50.836;4.348;2022-12-29T17:27:57;19.93;;;4.47;;
21581;SDS011;10952;50.836;4.348;2022-12-29T17:30:27;21.17;;;4.00;;
21581;SDS011;10952;50.836;4.348;2022-12-29T17:33:04;20.57;;;4.47;;
21581;SDS011;10952;50.836;4.348;2022-12-29T17:35:41;21.00;;;4.63;;
21581;SDS011;10952;50.836;4.348;2022-12-29T17:38:19;17.20;;;5.00;;
21581;SDS011;10952;50.836;4.348;2022-12-29T17:40:50;23.40;;;4.50;;
21581;SDS011;10952;50.836;4.348;2022-12-29T17:43:16;16.30;;;3.93;;
21581;SDS011;10952;50.836;4.348;2022-12-29T17:45:42;24.30;;;4.97;;
21581;SDS011;10952;50.836;4.348;2022-12-29T17:48:11;14.70;;;4.07;;
21581;SDS011;10952;50.836;4.348;2022-12-29T17:50:39;15.33;;;4.10;;
21581;SDS011;10952;50.836;4.348;2022-12-29T17:53:06;21.40;;;3.37;;
21581;SDS011;10952;50.836;4.348;2022-12-29T17:55:37;18.70;;;3.83;;
21581;SDS011;10952;50.836;4.348;2022-12-29T17:58:17;11.07;;;3.93;;
21581;SDS011;10952;50.836;4.348;2022-12-29T18:00:44;19.33;;;4.27;;
21581;SDS011;10952;50.836;4.348;2022-12-29T18:03:15;11.33;;;4.13;;
21581;SDS011;10952;50.836;4.348;2022-12-29T18:05:42;15.93;;;3.37;;
21581;SDS011;10952;50.836;4.348;2022-12-29T18:08:09;15.80;;;3.47;;
21581;SDS011;10952;50.836;4.348;2022-12-29T18:10:36;14.93;;;2.80;;
21581;SDS011;10952;50.836;4.348;2022-12-29T18:13:03;9.23;;;2.40;;